Time;durP1;ratioP1;P1;durP2;ratioP2;P2;SDS_P1;SDS_P2;PMS_P1;PMS_P2;Temp;Humidity;BMP_temperature;BMP_pressure;BME280_temperature;BME280_humidity;BME280_pressure;Samples;Min_cycle;Max_cycle;Signal;HPM_P1;HPM_P2
2022/10/07 00:00:23;;;;;;;;;;;;;;;21.78;57.95;102473.16;5011317;28;2898;-62
2022/10/07 00:02:50;;;;;;;;;;;;;;;21.81;57.93;102469.03;5013453;28;2938;-63
2022/10/07 00:05:16;;;;;;;;;;;;;;;21.79;57.72;102466.75;5012720;28;2930;-63
2022/10/07 00:07:43;;;;;;;;;;;;;;;21.77;57.79;102463.75;5011353;28;2816;-63
2022/10/07 00:10:10;;;;;;;;;;;;;;;21.77;58.04;102472.41;5015113;28;2970;-63
2022/10/07 00:12:36;;;;;;;;;;;;;;;21.77;58.26;102468.75;5014552;28;2882;-64
2022/10/07 00:15:03;;;;;;;;;;;;;;;21.75;58.11;102458.59;5011923;28;2858;-63
2022/10/07 00:17:29;;;;;;;;;;;;;;;21.75;57.74;102461.47;5013260;28;2653;-64
2022/10/07 00:19:57;;;;;;;;;;;;;;;21.75;57.65;102467.25;5003540;28;3034;-64
2022/10/07 00:22:23;;;;;;;;;;;;;;;21.74;57.87;102465.75;5009600;28;2914;-63
2022/10/07 00:24:49;;;;;;;;;;;;;;;21.75;57.85;102467.25;5008375;28;3548;-63
2022/10/07 00:27:16;;;;;;;;;;;;;;;21.73;58.07;102467.09;5009158;28;2843;-62
2022/10/07 00:29:43;;;;;;;;;;;;;;;21.73;58.11;102458.44;5009328;28;3098;-63
2022/10/07 00:32:10;;;;;;;;;;;;;;;21.73;58.01;102464.22;5013173;28;2960;-63
2022/10/07 00:34:36;;;;;;;;;;;;;;;21.73;57.94;102461.34;5007622;28;2883;-63
2022/10/07 00:37:03;;;;;;;;;;;;;;;21.71;57.87;102460.44;5007867;28;2811;-64
2022/10/07 00:39:29;;;;;;;;;;;;;;;21.72;58.15;102459.09;5011966;28;2788;-63
2022/10/07 00:41:56;;;;;;;;;;;;;;;21.81;57.58;102457.50;5009232;28;2936;-63
2022/10/07 00:44:32;;;;;;;;;;;;;;;21.90;57.31;102456.66;5011443;28;2891;-62
2022/10/07 00:46:59;;;;;;;;;;;;;;;21.72;57.95;102447.56;5011552;28;2884;-63
2022/10/07 00:49:29;;;;;;;;;;;;;;;21.70;57.67;102447.41;5026588;28;2910;-64
2022/10/07 00:51:55;;;;;;;;;;;;;;;21.68;57.96;102448.03;5009966;28;2969;-64
2022/10/07 00:54:21;;;;;;;;;;;;;;;21.68;57.66;102445.16;5006847;28;3056;-64
2022/10/07 00:56:48;;;;;;;;;;;;;;;21.69;57.83;102446.69;5014180;28;3336;-64
2022/10/07 00:59:14;;;;;;;;;;;;;;;21.69;57.69;102449.56;5006322;28;2729;-63
2022/10/07 01:01:41;;;;;;;;;;;;;;;21.69;57.73;102440.91;5008021;28;2809;-64
2022/10/07 01:04:08;;;;;;;;;;;;;;;21.69;58.02;102434.38;5010238;28;2985;-63
2022/10/07 01:06:37;;;;;;;;;;;;;;;21.67;57.75;102437.88;5011148;28;3490;-63
2022/10/07 01:09:04;;;;;;;;;;;;;;;21.66;58.06;102435.63;5011266;28;2976;-63
2022/10/07 01:11:38;;;;;;;;;;;;;;;21.64;58.04;102433.34;5013442;28;2887;-63
2022/10/07 01:14:13;;;;;;;;;;;;;;;21.66;57.79;102426.97;5020470;28;3056;-63
2022/10/07 01:16:46;;;;;;;;;;;;;;;21.61;57.88;102428.81;5019035;28;3134;-63
2022/10/07 01:19:35;;;;;;;;;;;;;;;21.63;58.16;102420.31;5009862;28;3058;-63
2022/10/07 01:22:11;;;;;;;;;;;;;;;21.62;57.73;102421.66;4995340;28;2897;-63
2022/10/07 01:24:38;;;;;;;;;;;;;;;21.62;57.90;102409.41;5033107;28;2879;-63
2022/10/07 01:27:17;;;;;;;;;;;;;;;21.63;57.99;102408.78;5012863;28;2864;-62
2022/10/07 01:29:58;;;;;;;;;;;;;;;21.60;57.83;102407.16;5002538;28;2909;-63
2022/10/07 01:32:32;;;;;;;;;;;;;;;21.61;57.93;102405.75;4999846;28;2908;-62
2022/10/07 01:35:00;;;;;;;;;;;;;;;21.61;57.97;102393.47;5038642;28;3155;-62
2022/10/07 01:37:27;;;;;;;;;;;;;;;21.61;57.66;102393.47;5016962;28;2831;-62
2022/10/07 01:39:55;;;;;;;;;;;;;;;21.61;57.70;102391.34;5034587;28;2808;-63
2022/10/07 01:42:21;;;;;;;;;;;;;;;21.61;58.16;102388.47;5007434;28;2839;-63
2022/10/07 01:44:50;;;;;;;;;;;;;;;21.61;58.02;102388.47;5009032;28;2860;-63
2022/10/07 01:47:16;;;;;;;;;;;;;;;21.59;58.26;102385.44;5035938;28;2917;-62
2022/10/07 01:49:42;;;;;;;;;;;;;;;21.59;57.77;102396.22;5008590;28;3035;-63
2022/10/07 01:52:15;;;;;;;;;;;;;;;21.57;57.92;102382.44;5040829;28;2894;-62
2022/10/07 01:55:00;;;;;;;;;;;;;;;21.57;57.86;102391.06;5007652;28;2911;-63
2022/10/07 01:57:35;;;;;;;;;;;;;;;21.56;57.72;102389.59;5012120;28;3123;-62
2022/10/07 02:00:04;;;;;;;;;;;;;;;21.57;57.66;102376.66;5040561;28;2832;-62
2022/10/07 02:02:47;;;;;;;;;;;;;;;21.55;57.88;102373.66;5021891;28;2894;-63
2022/10/07 02:05:34;;;;;;;;;;;;;;;21.56;57.76;102363.63;5007049;28;2932;-62
2022/10/07 02:08:24;;;;;;;;;;;;;;;21.55;57.86;102376.53;5010312;28;2689;-62
2022/10/07 02:10:57;;;;;;;;;;;;;;;21.53;57.89;102368.53;5008119;28;3075;-62
2022/10/07 02:13:26;;;;;;;;;;;;;;;21.54;58.07;102372.16;5010494;28;2907;-63
2022/10/07 02:15:55;;;;;;;;;;;;;;;21.53;57.87;102359.88;5007872;28;2973;-63
2022/10/07 02:18:21;;;;;;;;;;;;;;;21.53;57.78;102364.88;5011891;28;3394;-62
2022/10/07 02:20:50;;;;;;;;;;;;;;;21.51;58.37;102353.97;5008667;28;2990;-65
2022/10/07 02:23:19;;;;;;;;;;;;;;;21.52;57.94;102351.84;5002927;28;2975;-63
2022/10/07 02:25:46;;;;;;;;;;;;;;;21.53;58.07;102347.56;5024734;28;2827;-63
2022/10/07 02:28:13;;;;;;;;;;;;;;;21.52;57.97;102346.81;5013170;28;2740;-63
2022/10/07 02:30:40;;;;;;;;;;;;;;;21.52;57.75;102349.69;5038752;28;2975;-63
2022/10/07 02:33:06;;;;;;;;;;;;;;;21.53;57.91;102336.81;5017629;28;2836;-63
2022/10/07 02:35:32;;;;;;;;;;;;;;;21.51;57.75;102341.69;5009570;28;3080;-63
2022/10/07 02:38:01;;;;;;;;;;;;;;;21.52;57.77;102340.31;5015046;28;3075;-63
2022/10/07 02:40:48;;;;;;;;;;;;;;;21.50;57.93;102343.81;5041958;28;2945;-63
2022/10/07 02:43:28;;;;;;;;;;;;;;;21.51;57.80;102335.94;5009285;28;2982;-63
2022/10/07 02:46:15;;;;;;;;;;;;;;;21.52;57.79;102328.78;5006093;28;2933;-63
2022/10/07 02:48:43;;;;;;;;;;;;;;;21.60;57.59;102331.41;5014151;28;2697;-63
2022/10/07 02:51:10;;;;;;;;;;;;;;;21.62;57.69;102320.78;5023795;28;2866;-63
2022/10/07 02:53:37;;;;;;;;;;;;;;;21.62;57.65;102335.19;5011075;28;3010;-63
2022/10/07 02:56:04;;;;;;;;;;;;;;;21.64;57.44;102328.81;5008522;28;2994;-64
2022/10/07 02:58:30;;;;;;;;;;;;;;;21.69;57.25;102325.59;4997650;28;3004;-63
2022/10/07 03:00:58;;;;;;;;;;;;;;;21.68;57.56;102329.81;5011572;28;2912;-63
2022/10/07 03:03:25;;;;;;;;;;;;;;;21.69;57.48;102325.59;5011784;28;2936;-63
2022/10/07 03:05:57;;;;;;;;;;;;;;;21.72;57.38;102320.69;4996690;28;3027;-63
2022/10/07 03:08:24;;;;;;;;;;;;;;;21.70;57.68;102315.53;5009947;28;2812;-63
2022/10/07 03:10:51;;;;;;;;;;;;;;;21.61;57.78;102316.41;5021340;28;2839;-63
2022/10/07 03:13:17;;;;;;;;;;;;;;;21.64;57.81;102315.13;5009093;28;3257;-63
2022/10/07 03:15:49;;;;;;;;;;;;;;;21.66;57.73;102306.63;5006447;28;2948;-63
2022/10/07 03:18:27;;;;;;;;;;;;;;;21.66;57.57;102303.75;5020400;28;3089;-63
2022/10/07 03:21:18;;;;;;;;;;;;;;;21.69;57.75;102298.84;5024776;28;3184;-63
2022/10/07 03:23:51;;;;;;;;;;;;;;;21.64;57.47;102299.97;5009807;28;2827;-63
2022/10/07 03:26:19;;;;;;;;;;;;;;;21.62;57.57;102302.72;5014656;28;2863;-63
2022/10/07 03:28:46;;;;;;;;;;;;;;;21.63;57.72;102305.00;5015775;28;2965;-63
2022/10/07 03:31:14;;;;;;;;;;;;;;;21.64;57.67;102300.72;5016496;28;3339;-63
2022/10/07 03:33:45;;;;;;;;;;;;;;;21.64;57.75;102306.50;5007712;28;2761;-63
2022/10/07 03:36:12;;;;;;;;;;;;;;;21.65;57.88;102302.25;5019626;28;2917;-63
2022/10/07 03:38:41;;;;;;;;;;;;;;;21.65;57.91;102302.25;5014271;28;2721;-63
2022/10/07 03:41:09;;;;;;;;;;;;;;;21.69;57.80;102290.97;5003913;28;2904;-63
2022/10/07 03:43:36;;;;;;;;;;;;;;;21.69;57.77;102290.97;5023406;28;2925;-63
2022/10/07 03:46:04;;;;;;;;;;;;;;;21.71;57.55;102288.19;5015717;28;2808;-63
2022/10/07 03:48:34;;;;;;;;;;;;;;;21.70;57.83;102275.19;5011706;28;3153;-63
2022/10/07 03:51:01;;;;;;;;;;;;;;;21.67;57.64;102276.44;5016022;28;3209;-62
2022/10/07 03:53:29;;;;;;;;;;;;;;;21.70;57.82;102275.19;5008451;28;2800;-63
2022/10/07 03:55:58;;;;;;;;;;;;;;;21.73;57.87;102278.94;5012784;28;2844;-62
2022/10/07 03:58:24;;;;;;;;;;;;;;;21.71;57.49;102273.78;5016652;28;2743;-62
2022/10/07 04:00:51;;;;;;;;;;;;;;;21.73;57.54;102271.03;5029429;28;3073;-63
2022/10/07 04:03:18;;;;;;;;;;;;;;;21.75;57.58;102271.16;5019040;28;2910;-63
2022/10/07 04:05:59;;;;;;;;;;;;;;;21.75;57.81;102274.03;5023395;28;2952;-63
2022/10/07 04:08:28;;;;;;;;;;;;;;;21.74;57.70;102269.66;5019761;28;2965;-63
2022/10/07 04:10:56;;;;;;;;;;;;;;;21.74;57.61;102275.44;5007997;28;2978;-63
2022/10/07 04:13:22;;;;;;;;;;;;;;;21.71;57.64;102265.13;5037397;28;3017;-62
2022/10/07 04:15:50;;;;;;;;;;;;;;;21.77;57.55;102261.16;5027312;28;2894;-62
2022/10/07 04:18:17;;;;;;;;;;;;;;;21.73;57.60;102262.38;5020551;28;2923;-63
2022/10/07 04:20:43;;;;;;;;;;;;;;;21.72;57.62;102263.78;5019455;28;2950;-63
2022/10/07 04:23:11;;;;;;;;;;;;;;;21.74;57.79;102257.38;5016507;28;3173;-63
2022/10/07 04:25:42;;;;;;;;;;;;;;;21.75;57.49;102253.13;5009235;28;2998;-63
2022/10/07 04:28:16;;;;;;;;;;;;;;;21.75;57.78;102256.75;5011160;28;2947;-63
2022/10/07 04:30:44;;;;;;;;;;;;;;;21.75;57.57;102256.75;5017636;28;2892;-62
2022/10/07 04:33:12;;;;;;;;;;;;;;;21.74;57.65;102251.63;5003225;28;2916;-63
2022/10/07 04:35:39;;;;;;;;;;;;;;;21.78;57.63;102245.34;5005470;28;2903;-63
2022/10/07 04:38:07;;;;;;;;;;;;;;;21.80;57.63;102251.25;5012526;28;2901;-63
2022/10/07 04:40:37;;;;;;;;;;;;;;;21.77;57.75;102238.09;5000846;28;2858;-63
2022/10/07 04:43:19;;;;;;;;;;;;;;;21.70;57.69;102237.69;5022197;28;3029;-58
2022/10/07 04:45:54;;;;;;;;;;;;;;;21.67;56.88;102236.06;5009614;28;2884;-55
2022/10/07 04:48:22;;;;;;;;;;;;;;;21.68;56.84;102231.81;5002542;28;2958;-56
2022/10/07 04:50:50;;;;;;;;;;;;;;;21.78;57.15;102240.31;5019743;28;2931;-52
2022/10/07 04:53:19;;;;;;;;;;;;;;;21.79;57.13;102241.09;5006478;28;2999;-56
2022/10/07 04:55:46;;;;;;;;;;;;;;;21.75;56.94;102230.81;5006279;28;2996;-57
2022/10/07 04:58:13;;;;;;;;;;;;;;;21.72;57.65;102237.81;5012261;28;3049;-56
2022/10/07 05:00:43;;;;;;;;;;;;;;;21.75;57.25;102233.69;5020220;28;2912;-57
2022/10/07 05:03:11;;;;;;;;;;;;;;;21.75;57.28;102225.03;5027450;28;3280;-57
2022/10/07 05:05:39;;;;;;;;;;;;;;;21.80;57.36;102228.19;5004356;28;2997;-58
2022/10/07 05:08:06;;;;;;;;;;;;;;;21.80;56.97;102226.03;5007014;28;2869;-58
2022/10/07 05:10:39;;;;;;;;;;;;;;;21.81;57.18;102227.56;5009715;28;2920;-58
2022/10/07 05:13:06;;;;;;;;;;;;;;;21.84;57.05;102223.41;5013790;28;2916;-61
2022/10/07 05:15:32;;;;;;;;;;;;;;;21.83;57.07;102218.25;5008518;28;2907;-60
2022/10/07 05:17:59;;;;;;;;;;;;;;;21.73;56.87;102222.03;5006907;28;2907;-60
2022/10/07 05:20:27;;;;;;;;;;;;;;;21.60;56.49;102214.00;5010271;28;2944;-59
2022/10/07 05:22:54;;;;;;;;;;;;;;;21.33;52.98;102203.66;5019994;28;3440;-60
2022/10/07 05:25:21;;;;;;;;;;;;;;;21.17;52.96;102205.50;5006131;28;2993;-62
2022/10/07 05:27:52;;;;;;;;;;;;;;;21.70;55.53;102205.97;5002468;28;3431;-61
2022/10/07 05:30:19;;;;;;;;;;;;;;;21.90;54.68;102197.84;5020225;28;3740;-65
2022/10/07 05:32:45;;;;;;;;;;;;;;;22.00;53.06;102191.94;5026389;28;3020;-62
2022/10/07 05:35:12;;;;;;;;;;;;;;;22.11;51.81;102191.16;5033187;28;3358;-65
2022/10/07 05:37:39;;;;;;;;;;;;;;;22.25;52.15;102190.56;5016304;28;2995;-65
2022/10/07 05:40:06;;;;;;;;;;;;;;;22.27;51.59;102196.44;5018097;28;4133;-63
2022/10/07 05:42:32;;;;;;;;;;;;;;;22.31;51.32;102197.44;5017677;28;4293;-63
2022/10/07 05:44:59;;;;;;;;;;;;;;;22.32;50.64;102186.63;5009311;28;3963;-71
2022/10/07 05:47:25;;;;;;;;;;;;;;;22.44;51.94;102186.59;5014979;28;4442;-71
2022/10/07 05:49:57;;;;;;;;;;;;;;;22.57;51.70;102192.47;5010386;28;4456;-63
2022/10/07 05:52:23;;;;;;;;;;;;;;;22.24;51.72;102186.16;5024562;28;4300;-65
2022/10/07 05:54:50;;;;;;;;;;;;;;;21.95;53.08;102190.19;5008647;28;4542;-65
2022/10/07 05:57:17;;;;;;;;;;;;;;;21.93;53.58;102204.47;5014709;28;4519;-61
2022/10/07 05:59:43;;;;;;;;;;;;;;;21.81;53.33;102192.22;5020881;28;2986;-65
2022/10/07 06:02:13;;;;;;;;;;;;;;;21.90;53.31;102197.09;5009701;28;4578;-65
2022/10/07 06:04:44;;;;;;;;;;;;;;;21.91;53.71;102192.81;5007478;28;4750;-69
2022/10/07 06:07:10;;;;;;;;;;;;;;;21.95;53.59;102201.72;5022421;28;4565;-69
2022/10/07 06:15:10;;;;;;;;;;;;;;;21.93;54.50;102199.47;5006156;28;4587;-69
2022/10/07 06:17:43;;;;;;;;;;;;;;;21.85;54.66;102192.44;5001357;28;4236;-69
2022/10/07 06:20:13;;;;;;;;;;;;;;;21.91;54.92;102195.69;4994475;28;4479;-67
2022/10/07 06:22:42;;;;;;;;;;;;;;;22.24;54.73;102186.16;5002026;28;4410;-69
2022/10/07 06:25:10;;;;;;;;;;;;;;;22.55;54.45;102177.16;5010991;28;4478;-67
2022/10/07 06:27:37;;;;;;;;;;;;;;;22.75;54.13;102169.66;5005331;28;4500;-63
2022/10/07 06:30:03;;;;;;;;;;;;;;;22.87;53.33;102175.38;5007958;28;4817;-68
2022/10/07 06:32:31;;;;;;;;;;;;;;;22.92;53.50;102180.00;5006291;28;4436;-67
2022/10/07 06:34:58;;;;;;;;;;;;;;;22.94;53.27;102179.38;5011126;28;4430;-66
2022/10/07 06:37:25;;;;;;;;;;;;;;;22.92;53.67;102177.09;5009771;28;4508;-65
2022/10/07 06:39:52;;;;;;;;;;;;;;;22.93;53.31;102177.84;5043444;28;4501;-65
2022/10/07 06:42:25;;;;;;;;;;;;;;;22.91;53.69;102175.63;5026091;28;4547;-64
2022/10/07 06:45:17;;;;;;;;;;;;;;;22.97;53.39;102184.63;5019169;28;2911;-64
2022/10/07 06:47:44;;;;;;;;;;;;;;;22.97;53.67;102184.63;5018451;28;2356;-65
2022/10/07 06:50:11;;;;;;;;;;;;;;;22.88;53.90;102185.53;5014810;28;3069;-66
2022/10/07 06:52:38;;;;;;;;;;;;;;;22.85;54.21;102183.94;5008393;28;3211;-64
2022/10/07 06:55:09;;;;;;;;;;;;;;;22.77;54.60;102186.38;5013394;28;2970;-64
2022/10/07 06:57:36;;;;;;;;;;;;;;;22.85;54.14;102188.97;5001647;28;3092;-67
2022/10/07 07:00:14;;;;;;;;;;;;;;;22.71;54.44;102191.78;5007017;28;4303;-69
2022/10/07 07:02:41;;;;;;;;;;;;;;;22.82;54.36;102178.69;5010280;28;2966;-65
2022/10/07 07:05:12;;;;;;;;;;;;;;;22.84;54.23;102179.56;5008811;28;3540;-69
2022/10/07 07:07:38;;;;;;;;;;;;;;;22.80;54.41;102176.44;4945608;28;3339;-67
2022/10/07 07:10:05;;;;;;;;;;;;;;;22.80;54.42;102187.97;4962997;28;2985;-65
2022/10/07 07:12:34;;;;;;;;;;;;;;;22.66;54.75;102187.16;4972504;28;3073;-64
2022/10/07 07:15:01;;;;;;;;;;;;;;;22.63;54.82;102186.31;4983550;28;2986;-65
2022/10/07 07:17:27;;;;;;;;;;;;;;;22.68;55.05;102182.25;4979918;28;3109;-65
2022/10/07 07:19:55;;;;;;;;;;;;;;;22.61;55.30;102189.06;4982879;28;3119;-68
2022/10/07 07:22:21;;;;;;;;;;;;;;;22.84;54.64;102176.66;4978940;28;3154;-64
2022/10/07 07:24:48;;;;;;;;;;;;;;;22.70;55.00;102178.72;4976599;28;3053;-65
2022/10/07 07:27:15;;;;;;;;;;;;;;;22.65;54.86;102182.75;4990227;28;3573;-66
2022/10/07 07:29:42;;;;;;;;;;;;;;;22.73;54.92;102183.25;4981921;28;3525;-63
2022/10/07 07:32:10;;;;;;;;;;;;;;;22.76;54.76;102179.81;5028329;28;3194;-65
2022/10/07 07:34:39;;;;;;;;;;;;;;;22.77;54.90;102180.59;5011515;28;2990;-65
2022/10/07 07:37:09;;;;;;;;;;;;;;;22.80;54.79;102170.66;5015785;28;3090;-65
2022/10/07 07:39:41;;;;;;;;;;;;;;;22.68;55.10;102175.75;5015866;28;2926;-66
2022/10/07 07:42:10;;;;;;;;;;;;;;;22.78;55.37;102173.41;5032444;28;3073;-65
2022/10/07 07:44:38;;;;;;;;;;;;;;;22.87;54.80;102175.38;5011201;28;3155;-64
2022/10/07 07:47:08;;;;;;;;;;;;;;;22.79;55.10;102172.03;5030586;28;3264;-65
2022/10/07 07:49:36;;;;;;;;;;;;;;;22.71;54.87;102162.91;5018354;28;3168;-61
2022/10/07 07:52:04;;;;;;;;;;;;;;;22.77;55.05;102169.78;5014815;28;3068;-61
2022/10/07 07:54:36;;;;;;;;;;;;;;;22.71;54.79;102169.44;5013625;28;2984;-59
2022/10/07 07:57:02;;;;;;;;;;;;;;;22.71;55.32;102162.91;5029815;28;3282;-62
2022/10/07 07:59:31;;;;;;;;;;;;;;;22.71;55.28;102168.69;5047402;28;3564;-62
2022/10/07 08:01:58;;;;;;;;;;;;;;;22.75;55.05;102154.47;5010422;28;3033;-62
2022/10/07 08:04:25;;;;;;;;;;;;;;;22.79;55.25;102157.59;5014177;28;3088;-64
2022/10/07 08:06:52;;;;;;;;;;;;;;;22.94;54.70;102157.00;5011791;28;3158;-65
2022/10/07 08:09:18;;;;;;;;;;;;;;;22.95;54.48;102161.41;5011782;28;3105;-65
2022/10/07 08:11:46;;;;;;;;;;;;;;;22.96;54.63;102153.50;5034708;28;2877;-66
2022/10/07 08:14:15;;;;;;;;;;;;;;;22.97;54.68;102138.38;5006208;28;3060;-66
2022/10/07 08:16:46;;;;;;;;;;;;;;;22.79;54.70;102143.13;5014671;28;3442;-77
2022/10/07 08:19:12;;;;;;;;;;;;;;;22.18;52.69;102146.88;5012280;28;3103;-63
2022/10/07 08:21:39;;;;;;;;;;;;;;;22.48;52.67;102141.41;5030376;28;3037;-64
2022/10/07 08:24:09;;;;;;;;;;;;;;;22.67;52.45;102145.34;5026322;28;3079;-66
2022/10/07 08:26:37;;;;;;;;;;;;;;;22.74;52.98;102144.31;5008754;28;2892;-65
2022/10/07 08:29:07;;;;;;;;;;;;;;;22.79;53.56;102146.03;5026122;28;4351;-74
2022/10/07 08:31:34;;;;;;;;;;;;;;;22.72;53.95;102141.28;5029331;28;2969;-70
2022/10/07 08:34:01;;;;;;;;;;;;;;;22.55;54.39;102134.59;5015696;28;2883;-62
2022/10/07 08:36:28;;;;;;;;;;;;;;;22.52;54.73;102130.09;5008557;28;2958;-67
2022/10/07 08:38:54;;;;;;;;;;;;;;;22.36;54.98;102126.28;5005211;28;3093;-66
2022/10/07 08:41:35;;;;;;;;;;;;;;;22.11;53.54;102133.47;5012304;28;3025;-64
2022/10/07 08:44:16;;;;;;;;;;;;;;;22.29;53.60;102118.66;5018384;28;3169;-62
2022/10/07 08:47:01;;;;;;;;;;;;;;;22.46;53.51;102120.34;5011945;28;3047;-64
2022/10/07 08:49:53;;;;;;;;;;;;;;;22.22;55.89;102120.44;5013612;28;3305;-62
2022/10/07 08:52:31;;;;;;;;;;;;;;;22.41;55.35;102119.34;4991503;28;3528;-63
2022/10/07 08:54:59;;;;;;;;;;;;;;;22.51;55.02;102116.28;5011180;28;3108;-64
2022/10/07 08:57:44;;;;;;;;;;;;;;;22.54;54.68;102110.00;5017143;28;3322;-63
2022/10/07 09:00:12;;;;;;;;;;;;;;;22.45;55.25;102110.16;5004328;28;4461;-64
2022/10/07 09:02:50;;;;;;;;;;;;;;;22.52;55.16;102107.00;5010153;28;3304;-66
2022/10/07 09:05:21;;;;;;;;;;;;;;;22.38;56.01;102094.66;5012404;28;3215;-63
2022/10/07 09:07:49;;;;;;;;;;;;;;;22.39;55.70;102096.16;5007558;28;4159;-60
2022/10/07 09:10:28;;;;;;;;;;;;;;;22.37;56.27;102087.38;5003981;28;2859;-64
2022/10/07 09:12:55;;;;;;;;;;;;;;;22.32;55.96;102097.19;5008437;28;3271;-63
2022/10/07 09:15:30;;;;;;;;;;;;;;;22.31;55.90;102099.31;5008386;28;3231;-63
2022/10/07 09:18:09;;;;;;;;;;;;;;;22.08;53.98;102088.59;5005067;28;3367;-67
2022/10/07 09:20:36;;;;;;;;;;;;;;;21.98;51.54;102072.81;5008725;28;2860;-67
2022/10/07 09:23:03;;;;;;;;;;;;;;;22.11;51.45;102087.31;5016514;28;2835;-67
2022/10/07 09:25:29;;;;;;;;;;;;;;;22.15;54.28;102070.25;5010506;28;3070;-67
2022/10/07 09:27:56;;;;;;;;;;;;;;;22.11;55.63;102075.78;5015324;28;3085;-67
2022/10/07 09:30:22;;;;;;;;;;;;;;;22.15;55.33;102070.25;5014667;28;3044;-67
2022/10/07 09:32:49;;;;;;;;;;;;;;;22.14;55.86;102065.09;5017357;28;3214;-67
2022/10/07 09:35:17;;;;;;;;;;;;;;;22.14;56.28;102065.09;5028102;28;2874;-67
2022/10/07 09:37:54;;;;;;;;;;;;;;;22.12;56.21;102065.72;5009473;28;3065;-67
2022/10/07 09:40:21;;;;;;;;;;;;;;;22.15;56.19;102064.47;5014913;28;3033;-67
2022/10/07 09:42:48;;;;;;;;;;;;;;;22.16;56.28;102060.19;5009461;28;3906;-67
2022/10/07 09:45:19;;;;;;;;;;;;;;;22.14;56.38;102047.78;5023610;28;2984;-67
2022/10/07 09:47:50;;;;;;;;;;;;;;;22.13;56.49;102055.69;5026603;28;2153;-67
2022/10/07 09:50:30;;;;;;;;;;;;;;;22.12;56.42;102047.66;5009941;28;3048;-67
2022/10/07 09:52:56;;;;;;;;;;;;;;;22.11;56.63;102041.16;5010967;28;3456;-67
2022/10/07 09:55:31;;;;;;;;;;;;;;;22.12;56.40;102036.13;5013122;28;3160;-67
2022/10/07 09:57:58;;;;;;;;;;;;;;;22.10;56.58;102042.53;5010029;28;3137;-67
2022/10/07 10:00:25;;;;;;;;;;;;;;;22.06;56.77;102036.53;5012294;28;4234;-67
2022/10/07 10:02:52;;;;;;;;;;;;;;;22.09;56.86;102032.38;5012953;28;3914;-67
2022/10/07 10:05:19;;;;;;;;;;;;;;;22.05;56.92;102026.38;5021069;28;3111;-67
2022/10/07 10:07:45;;;;;;;;;;;;;;;22.09;57.02;102034.50;5013122;28;2943;-67
2022/10/07 10:10:16;;;;;;;;;;;;;;;22.09;56.70;102032.38;5016944;28;3173;-67
2022/10/07 10:12:45;;;;;;;;;;;;;;;22.09;56.64;102020.09;5010795;28;3089;-67
2022/10/07 10:15:21;;;;;;;;;;;;;;;22.04;56.65;102015.47;5009982;28;2944;-67
2022/10/07 10:17:48;;;;;;;;;;;;;;;22.04;57.08;102019.09;5011895;28;2848;-67
2022/10/07 10:20:20;;;;;;;;;;;;;;;22.01;57.16;102011.69;5015752;28;3057;-67
2022/10/07 10:22:48;;;;;;;;;;;;;;;22.03;57.04;102016.84;5014040;28;2954;-67
2022/10/07 10:28:05;;;;;;;;;;;;;;;22.07;56.93;102000.53;5016364;28;3406;-67
2022/10/07 10:30:32;;;;;;;;;;;;;;;22.05;56.81;101991.75;5027148;28;3166;-67
2022/10/07 10:33:09;;;;;;;;;;;;;;;22.03;56.81;101997.41;5010615;28;3089;-68
2022/10/07 10:35:48;;;;;;;;;;;;;;;21.94;54.80;101986.78;5002114;28;2928;-68
2022/10/07 10:38:32;;;;;;;;;;;;;;;22.11;50.92;101977.69;5008800;28;4464;-62
2022/10/07 10:40:59;;;;;;;;;;;;;;;22.27;50.40;101977.88;5010832;28;3415;-62
2022/10/07 10:43:44;;;;;;;;;;;;;;;22.37;50.44;101977.69;5008155;28;3165;-63
2022/10/07 10:46:25;;;;;;;;;;;;;;;22.43;53.30;101974.41;5012283;28;3065;-66
2022/10/07 10:49:09;;;;;;;;;;;;;;;22.39;55.08;101963.38;5017955;28;3354;-61
2022/10/07 10:51:44;;;;;;;;;;;;;;;22.33;54.94;101951.50;5009439;28;4425;-60
2022/10/07 10:54:16;;;;;;;;;;;;;;;22.41;55.04;101951.94;5005847;28;4276;-65
2022/10/07 10:56:50;;;;;;;;;;;;;;;22.59;54.65;101944.28;5015958;28;2963;-65
2022/10/07 10:59:36;;;;;;;;;;;;;;;22.62;54.58;101941.53;5015226;28;3105;-76
2022/10/07 11:02:11;;;;;;;;;;;;;;;22.45;55.37;101929.09;5011824;28;3056;-74
2022/10/07 11:04:42;;;;;;;;;;;;;;;22.38;55.52;101919.34;5027445;28;3575;-71
2022/10/07 11:07:27;;;;;;;;;;;;;;;22.36;55.71;101922.13;5017976;28;2925;-72
2022/10/07 11:09:58;;;;;;;;;;;;;;;22.23;56.13;101907.66;5009047;28;3058;-71
2022/10/07 11:12:27;;;;;;;;;;;;;;;22.72;55.23;101908.19;5003679;28;3033;-65
2022/10/07 11:14:55;;;;;;;;;;;;;;;23.02;54.49;101904.66;5007960;28;2934;-65
2022/10/07 11:17:25;;;;;;;;;;;;;;;23.16;54.07;101906.16;5034438;28;3557;-63
2022/10/07 11:20:10;;;;;;;;;;;;;;;23.27;53.53;101903.75;5011681;28;3271;-65
2022/10/07 11:22:38;;;;;;;;;;;;;;;23.29;53.50;101895.94;5016212;28;3706;-61
2022/10/07 11:25:07;;;;;;;;;;;;;;;23.39;53.54;101884.91;5030649;28;3114;-62
2022/10/07 11:27:33;;;;;;;;;;;;;;;23.40;53.06;101886.38;5015710;28;3247;-66
2022/10/07 11:30:13;;;;;;;;;;;;;;;23.38;53.11;101873.97;5020675;28;2840;-65
2022/10/07 11:32:48;;;;;;;;;;;;;;;23.14;53.60;101877.16;5033555;28;3060;-65
2022/10/07 11:35:19;;;;;;;;;;;;;;;23.05;52.46;101877.38;5013721;28;2828;-65
2022/10/07 11:37:51;;;;;;;;;;;;;;;22.95;51.46;101871.78;5024002;28;3089;-75
2022/10/07 11:40:17;;;;;;;;;;;;;;;22.64;50.78;101870.19;5028172;28;3114;-73
2022/10/07 11:42:45;;;;;;;;;;;;;;;22.72;50.51;101858.31;5011126;28;3076;-70
2022/10/07 11:45:15;;;;;;;;;;;;;;;22.85;52.01;101866.22;5019577;28;3034;-67
2022/10/07 11:47:45;;;;;;;;;;;;;;;23.16;51.82;101853.41;5013953;28;3087;-62
2022/10/07 11:50:18;;;;;;;;;;;;;;;23.23;50.83;101852.31;5017668;28;2993;-64
2022/10/07 11:52:45;;;;;;;;;;;;;;;23.05;49.37;101848.50;5014332;28;3219;-62
2022/10/07 11:55:19;;;;;;;;;;;;;;;23.09;51.20;101832.13;5013772;28;3105;-63
2022/10/07 11:57:48;;;;;;;;;;;;;;;23.07;48.61;101829.13;5017631;28;3217;-65
2022/10/07 12:00:20;;;;;;;;;;;;;;;23.10;51.46;101832.84;5014383;28;3041;-65
2022/10/07 12:02:47;;;;;;;;;;;;;;;23.05;50.11;101825.38;5013524;28;3021;-63
2022/10/07 12:05:33;;;;;;;;;;;;;;;23.15;49.64;101814.31;5014375;28;3050;-63
2022/10/07 12:08:00;;;;;;;;;;;;;;;23.13;48.77;101803.41;5012083;28;3598;-65
2022/10/07 12:10:30;;;;;;;;;;;;;;;23.28;45.90;101799.09;5014040;28;3211;-68
2022/10/07 12:12:57;;;;;;;;;;;;;;;23.21;46.68;101797.28;5014464;28;2919;-66
2022/10/07 12:15:34;;;;;;;;;;;;;;;23.28;47.13;101784.63;5013393;28;3054;-66
2022/10/07 12:18:03;;;;;;;;;;;;;;;23.28;49.55;101787.53;5015520;28;3105;-65
2022/10/07 12:20:33;;;;;;;;;;;;;;;23.25;50.28;101785.94;5011466;28;3045;-64
2022/10/07 12:23:21;;;;;;;;;;;;;;;23.25;50.45;101791.72;5019905;28;3085;-64
2022/10/07 12:25:58;;;;;;;;;;;;;;;23.25;50.72;101770.72;5022596;28;2990;-64
2022/10/07 12:28:24;;;;;;;;;;;;;;;23.15;51.04;101777.50;5019548;28;2936;-67
2022/10/07 12:30:52;;;;;;;;;;;;;;;23.08;51.13;101772.81;5013724;28;2950;-67
2022/10/07 12:33:34;;;;;;;;;;;;;;;23.36;50.94;101761.16;5022498;28;3470;-64
2022/10/07 12:36:28;;;;;;;;;;;;;;;23.34;51.26;101761.81;5021338;28;4340;-63
2022/10/07 12:38:58;;;;;;;;;;;;;;;23.34;51.04;101753.16;5018135;28;2871;-62
2022/10/07 12:41:24;;;;;;;;;;;;;;;23.36;50.36;101756.13;5014129;28;2906;-63
2022/10/07 12:44:11;;;;;;;;;;;;;;;23.29;50.64;101748.56;5016241;28;2874;-65
2022/10/07 12:46:50;;;;;;;;;;;;;;;23.49;51.01;101750.94;5008753;28;3172;-61
2022/10/07 12:49:20;;;;;;;;;;;;;;;23.42;51.03;101747.00;5013164;28;3022;-63
2022/10/07 12:51:46;;;;;;;;;;;;;;;23.43;51.30;101745.59;5014711;28;3486;-68
2022/10/07 12:54:16;;;;;;;;;;;;;;;23.32;50.94;101737.84;4993918;28;4491;-64
2022/10/07 12:56:43;;;;;;;;;;;;;;;23.46;51.03;101729.13;5012381;28;2769;-65
2022/10/07 13:02:22;;;;;;;;;;;;;;;22.93;49.47;101725.13;5007971;28;3060;-62
2022/10/07 13:04:53;;;;;;;;;;;;;;;22.87;50.69;101718.31;5011673;28;3620;-61
2022/10/07 13:07:38;;;;;;;;;;;;;;;22.87;50.99;101724.81;5008318;28;3017;-61
2022/10/07 13:10:23;;;;;;;;;;;;;;;22.86;50.96;101716.78;5007059;28;2853;-61
2022/10/07 13:12:53;;;;;;;;;;;;;;;22.88;51.16;101719.78;5009147;28;3101;-62
2022/10/07 13:15:24;;;;;;;;;;;;;;;22.86;51.04;101711.78;5012788;28;3128;-61